sensor_id;sensor_type;location;lat;lon;timestamp;temperature;humidity
76613;DHT22;65507;48.454;-2.058;2023-12-22T00:00:29;12.60;88.20
76613;DHT22;65507;48.454;-2.058;2023-12-22T00:02:55;12.60;88.20
76613;DHT22;65507;48.454;-2.058;2023-12-22T00:05:21;12.60;88.20
76613;DHT22;65507;48.454;-2.058;2023-12-22T00:07:46;12.60;88.20
76613;DHT22;65507;48.454;-2.058;2023-12-22T00:10:12;12.60;89.10
76613;DHT22;65507;48.454;-2.058;2023-12-22T00:12:38;12.60;88.20
76613;DHT22;65507;48.454;-2.058;2023-12-22T00:15:05;12.70;88.30
76613;DHT22;65507;48.454;-2.058;2023-12-22T00:17:31;12.60;88.20
76613;DHT22;65507;48.454;-2.058;2023-12-22T00:19:57;12.70;88.30
76613;DHT22;65507;48.454;-2.058;2023-12-22T00:22:24;12.70;88.30
76613;DHT22;65507;48.454;-2.058;2023-12-22T00:24:50;12.60;88.30
76613;DHT22;65507;48.454;-2.058;2023-12-22T00:27:16;12.60;88.30
76613;DHT22;65507;48.454;-2.058;2023-12-22T00:29:42;12.70;88.30
76613;DHT22;65507;48.454;-2.058;2023-12-22T00:32:08;12.70;88.30
76613;DHT22;65507;48.454;-2.058;2023-12-22T00:34:35;12.70;88.30
76613;DHT22;65507;48.454;-2.058;2023-12-22T00:37:01;12.70;88.30
76613;DHT22;65507;48.454;-2.058;2023-12-22T00:39:27;12.70;88.30
76613;DHT22;65507;48.454;-2.058;2023-12-22T00:41:53;12.70;88.40
76613;DHT22;65507;48.454;-2.058;2023-12-22T00:44:18;12.70;88.30
76613;DHT22;65507;48.454;-2.058;2023-12-22T00:46:44;12.70;88.50
76613;DHT22;65507;48.454;-2.058;2023-12-22T00:49:10;12.70;88.50
76613;DHT22;65507;48.454;-2.058;2023-12-22T00:51:35;12.70;88.60
76613;DHT22;65507;48.454;-2.058;2023-12-22T00:54:01;12.70;88.60
76613;DHT22;65507;48.454;-2.058;2023-12-22T00:56:27;12.70;88.60
76613;DHT22;65507;48.454;-2.058;2023-12-22T00:58:52;12.70;88.70
76613;DHT22;65507;48.454;-2.058;2023-12-22T01:01:19;12.60;88.70
76613;DHT22;65507;48.454;-2.058;2023-12-22T01:03:44;12.60;88.90
76613;DHT22;65507;48.454;-2.058;2023-12-22T01:06:10;12.60;89.00
76613;DHT22;65507;48.454;-2.058;2023-12-22T01:08:37;12.50;89.00
76613;DHT22;65507;48.454;-2.058;2023-12-22T01:11:03;12.50;89.10
76613;DHT22;65507;48.454;-2.058;2023-12-22T01:13:29;12.60;89.10
76613;DHT22;65507;48.454;-2.058;2023-12-22T01:15:54;12.60;89.10
76613;DHT22;65507;48.454;-2.058;2023-12-22T01:18:20;12.60;89.00
76613;DHT22;65507;48.454;-2.058;2023-12-22T01:20:46;12.60;89.00
76613;DHT22;65507;48.454;-2.058;2023-12-22T01:23:12;12.60;89.00
76613;DHT22;65507;48.454;-2.058;2023-12-22T01:25:37;12.50;89.10
76613;DHT22;65507;48.454;-2.058;2023-12-22T01:28:03;12.50;89.20
76613;DHT22;65507;48.454;-2.058;2023-12-22T01:30:29;12.40;89.20
76613;DHT22;65507;48.454;-2.058;2023-12-22T01:32:54;12.40;89.40
76613;DHT22;65507;48.454;-2.058;2023-12-22T01:35:20;12.40;89.40
76613;DHT22;65507;48.454;-2.058;2023-12-22T01:37:46;12.40;89.40
76613;DHT22;65507;48.454;-2.058;2023-12-22T01:40:13;12.40;89.50
76613;DHT22;65507;48.454;-2.058;2023-12-22T01:42:39;12.40;89.50
76613;DHT22;65507;48.454;-2.058;2023-12-22T01:45:05;12.30;89.50
76613;DHT22;65507;48.454;-2.058;2023-12-22T01:47:32;12.30;89.50
76613;DHT22;65507;48.454;-2.058;2023-12-22T01:49:58;12.30;89.60
76613;DHT22;65507;48.454;-2.058;2023-12-22T01:52:25;12.30;89.70
76613;DHT22;65507;48.454;-2.058;2023-12-22T01:54:51;12.30;89.70
76613;DHT22;65507;48.454;-2.058;2023-12-22T01:57:17;12.30;89.60
76613;DHT22;65507;48.454;-2.058;2023-12-22T01:59:45;12.30;89.60
76613;DHT22;65507;48.454;-2.058;2023-12-22T02:02:11;12.30;89.50
76613;DHT22;65507;48.454;-2.058;2023-12-22T02:04:37;12.30;89.40
76613;DHT22;65507;48.454;-2.058;2023-12-22T02:07:05;12.30;89.40
76613;DHT22;65507;48.454;-2.058;2023-12-22T02:09:33;12.30;89.30
76613;DHT22;65507;48.454;-2.058;2023-12-22T02:11:59;12.30;89.30
76613;DHT22;65507;48.454;-2.058;2023-12-22T02:14:24;12.30;89.30
76613;DHT22;65507;48.454;-2.058;2023-12-22T02:19:44;12.30;89.50
76613;DHT22;65507;48.454;-2.058;2023-12-22T02:22:12;12.30;89.50
76613;DHT22;65507;48.454;-2.058;2023-12-22T02:24:41;12.30;89.50
76613;DHT22;65507;48.454;-2.058;2023-12-22T02:29:49;12.20;89.90
76613;DHT22;65507;48.454;-2.058;2023-12-22T02:32:30;12.20;90.00
76613;DHT22;65507;48.454;-2.058;2023-12-22T02:34:56;12.20;90.00
76613;DHT22;65507;48.454;-2.058;2023-12-22T02:37:24;12.10;90.10
76613;DHT22;65507;48.454;-2.058;2023-12-22T02:39:51;12.10;90.10
76613;DHT22;65507;48.454;-2.058;2023-12-22T02:42:18;12.10;90.10
76613;DHT22;65507;48.454;-2.058;2023-12-22T02:44:45;12.10;90.10
76613;DHT22;65507;48.454;-2.058;2023-12-22T02:47:11;12.10;90.10
76613;DHT22;65507;48.454;-2.058;2023-12-22T02:49:36;12.00;90.10
76613;DHT22;65507;48.454;-2.058;2023-12-22T02:52:02;12.10;90.10
76613;DHT22;65507;48.454;-2.058;2023-12-22T02:54:28;12.10;90.10
76613;DHT22;65507;48.454;-2.058;2023-12-22T02:56:56;12.10;90.10
76613;DHT22;65507;48.454;-2.058;2023-12-22T02:59:21;12.00;90.00
76613;DHT22;65507;48.454;-2.058;2023-12-22T03:01:47;12.00;90.10
76613;DHT22;65507;48.454;-2.058;2023-12-22T03:04:12;11.90;90.30
76613;DHT22;65507;48.454;-2.058;2023-12-22T03:06:38;11.90;90.30
76613;DHT22;65507;48.454;-2.058;2023-12-22T03:09:04;11.90;90.30
76613;DHT22;65507;48.454;-2.058;2023-12-22T03:11:29;11.80;90.30
76613;DHT22;65507;48.454;-2.058;2023-12-22T03:13:55;11.80;90.40
76613;DHT22;65507;48.454;-2.058;2023-12-22T03:16:21;11.80;90.40
76613;DHT22;65507;48.454;-2.058;2023-12-22T03:18:46;11.80;90.40
76613;DHT22;65507;48.454;-2.058;2023-12-22T03:21:21;11.80;90.50
76613;DHT22;65507;48.454;-2.058;2023-12-22T03:23:47;11.80;90.30
76613;DHT22;65507;48.454;-2.058;2023-12-22T03:26:12;11.90;90.30
76613;DHT22;65507;48.454;-2.058;2023-12-22T03:28:38;11.90;90.30
76613;DHT22;65507;48.454;-2.058;2023-12-22T03:31:04;11.90;90.30
76613;DHT22;65507;48.454;-2.058;2023-12-22T03:33:32;11.90;90.30
76613;DHT22;65507;48.454;-2.058;2023-12-22T03:35:57;11.90;90.40
76613;DHT22;65507;48.454;-2.058;2023-12-22T03:38:23;12.00;90.20
76613;DHT22;65507;48.454;-2.058;2023-12-22T03:40:49;12.00;90.20
76613;DHT22;65507;48.454;-2.058;2023-12-22T03:43:14;12.00;90.20
76613;DHT22;65507;48.454;-2.058;2023-12-22T03:45:40;12.00;90.10
76613;DHT22;65507;48.454;-2.058;2023-12-22T03:48:06;12.10;90.10
76613;DHT22;65507;48.454;-2.058;2023-12-22T03:50:32;12.10;90.10
76613;DHT22;65507;48.454;-2.058;2023-12-22T03:52:57;12.10;90.10
76613;DHT22;65507;48.454;-2.058;2023-12-22T03:55:23;12.10;90.20
76613;DHT22;65507;48.454;-2.058;2023-12-22T03:57:49;12.10;90.20
76613;DHT22;65507;48.454;-2.058;2023-12-22T04:00:15;12.10;90.20
76613;DHT22;65507;48.454;-2.058;2023-12-22T04:02:41;12.10;90.20
76613;DHT22;65507;48.454;-2.058;2023-12-22T04:05:07;12.00;90.20
76613;DHT22;65507;48.454;-2.058;2023-12-22T04:07:33;12.00;90.30
76613;DHT22;65507;48.454;-2.058;2023-12-22T04:09:59;12.00;90.30
76613;DHT22;65507;48.454;-2.058;2023-12-22T04:12:24;11.90;90.40
76613;DHT22;65507;48.454;-2.058;2023-12-22T04:14:50;11.80;90.50
76613;DHT22;65507;48.454;-2.058;2023-12-22T04:17:16;11.70;90.70
76613;DHT22;65507;48.454;-2.058;2023-12-22T04:19:42;11.70;90.70
76613;DHT22;65507;48.454;-2.058;2023-12-22T04:22:08;11.60;90.80
76613;DHT22;65507;48.454;-2.058;2023-12-22T04:24:33;11.60;90.80
76613;DHT22;65507;48.454;-2.058;2023-12-22T04:26:59;11.60;90.80
76613;DHT22;65507;48.454;-2.058;2023-12-22T04:29:24;11.60;90.90
76613;DHT22;65507;48.454;-2.058;2023-12-22T04:31:50;11.60;90.90
76613;DHT22;65507;48.454;-2.058;2023-12-22T04:34:16;11.60;90.90
76613;DHT22;65507;48.454;-2.058;2023-12-22T04:36:42;11.60;90.90
76613;DHT22;65507;48.454;-2.058;2023-12-22T04:39:07;11.60;90.90
76613;DHT22;65507;48.454;-2.058;2023-12-22T04:41:33;11.60;90.90
76613;DHT22;65507;48.454;-2.058;2023-12-22T04:43:59;11.70;91.00
76613;DHT22;65507;48.454;-2.058;2023-12-22T04:46:29;11.70;90.90
76613;DHT22;65507;48.454;-2.058;2023-12-22T04:48:55;11.70;90.90
76613;DHT22;65507;48.454;-2.058;2023-12-22T04:51:21;11.70;90.90
76613;DHT22;65507;48.454;-2.058;2023-12-22T04:53:46;11.70;91.00
76613;DHT22;65507;48.454;-2.058;2023-12-22T04:56:12;11.60;91.00
76613;DHT22;65507;48.454;-2.058;2023-12-22T04:58:38;11.60;91.00
76613;DHT22;65507;48.454;-2.058;2023-12-22T05:01:03;11.60;91.00
76613;DHT22;65507;48.454;-2.058;2023-12-22T05:03:29;11.60;91.00
76613;DHT22;65507;48.454;-2.058;2023-12-22T05:05:55;11.60;91.00
76613;DHT22;65507;48.454;-2.058;2023-12-22T05:08:21;11.70;91.10
76613;DHT22;65507;48.454;-2.058;2023-12-22T05:10:46;11.70;91.10
76613;DHT22;65507;48.454;-2.058;2023-12-22T05:13:15;11.70;91.10
76613;DHT22;65507;48.454;-2.058;2023-12-22T05:15:41;11.70;91.00
76613;DHT22;65507;48.454;-2.058;2023-12-22T05:18:06;11.70;91.00
76613;DHT22;65507;48.454;-2.058;2023-12-22T05:20:32;11.70;91.00
76613;DHT22;65507;48.454;-2.058;2023-12-22T05:22:58;11.70;91.00
76613;DHT22;65507;48.454;-2.058;2023-12-22T05:25:24;11.70;90.90
76613;DHT22;65507;48.454;-2.058;2023-12-22T05:27:50;11.70;91.00
76613;DHT22;65507;48.454;-2.058;2023-12-22T05:30:15;11.70;91.00
76613;DHT22;65507;48.454;-2.058;2023-12-22T05:32:41;11.70;91.00
76613;DHT22;65507;48.454;-2.058;2023-12-22T05:35:07;11.70;91.00
76613;DHT22;65507;48.454;-2.058;2023-12-22T05:37:33;11.70;91.00
76613;DHT22;65507;48.454;-2.058;2023-12-22T05:39:58;11.70;91.00
76613;DHT22;65507;48.454;-2.058;2023-12-22T05:42:24;11.70;91.00
76613;DHT22;65507;48.454;-2.058;2023-12-22T05:44:50;11.70;91.00
76613;DHT22;65507;48.454;-2.058;2023-12-22T05:47:16;11.70;91.10
76613;DHT22;65507;48.454;-2.058;2023-12-22T05:49:42;11.70;91.10
76613;DHT22;65507;48.454;-2.058;2023-12-22T05:52:08;11.60;91.10
76613;DHT22;65507;48.454;-2.058;2023-12-22T05:54:35;11.60;91.20
76613;DHT22;65507;48.454;-2.058;2023-12-22T05:57:01;11.60;91.10
76613;DHT22;65507;48.454;-2.058;2023-12-22T05:59:30;11.60;91.10
76613;DHT22;65507;48.454;-2.058;2023-12-22T06:02:03;11.60;91.10
76613;DHT22;65507;48.454;-2.058;2023-12-22T06:04:29;11.60;91.10
76613;DHT22;65507;48.454;-2.058;2023-12-22T06:06:55;11.60;91.10
76613;DHT22;65507;48.454;-2.058;2023-12-22T06:09:20;11.70;91.10
76613;DHT22;65507;48.454;-2.058;2023-12-22T06:11:47;11.60;91.10
76613;DHT22;65507;48.454;-2.058;2023-12-22T06:14:13;11.60;91.10
76613;DHT22;65507;48.454;-2.058;2023-12-22T06:16:39;11.60;91.10
76613;DHT22;65507;48.454;-2.058;2023-12-22T06:19:05;11.60;91.10
76613;DHT22;65507;48.454;-2.058;2023-12-22T06:21:31;11.60;91.20
76613;DHT22;65507;48.454;-2.058;2023-12-22T06:23:56;11.60;91.10
76613;DHT22;65507;48.454;-2.058;2023-12-22T06:26:22;11.60;91.10
76613;DHT22;65507;48.454;-2.058;2023-12-22T06:28:49;11.60;91.20
76613;DHT22;65507;48.454;-2.058;2023-12-22T06:31:19;11.60;91.20
76613;DHT22;65507;48.454;-2.058;2023-12-22T06:33:45;11.60;91.20
76613;DHT22;65507;48.454;-2.058;2023-12-22T06:36:24;11.60;91.10
76613;DHT22;65507;48.454;-2.058;2023-12-22T06:38:51;11.60;91.20
76613;DHT22;65507;48.454;-2.058;2023-12-22T06:41:24;11.60;91.20
76613;DHT22;65507;48.454;-2.058;2023-12-22T06:43:51;11.60;91.10
76613;DHT22;65507;48.454;-2.058;2023-12-22T06:46:21;11.60;91.10
76613;DHT22;65507;48.454;-2.058;2023-12-22T06:48:48;11.60;91.10
76613;DHT22;65507;48.454;-2.058;2023-12-22T06:51:31;11.60;91.10
76613;DHT22;65507;48.454;-2.058;2023-12-22T06:53:58;11.60;91.10
76613;DHT22;65507;48.454;-2.058;2023-12-22T06:56:27;11.60;91.20
76613;DHT22;65507;48.454;-2.058;2023-12-22T06:58:54;11.60;91.20
76613;DHT22;65507;48.454;-2.058;2023-12-22T07:01:28;11.60;91.10
76613;DHT22;65507;48.454;-2.058;2023-12-22T07:03:54;11.60;91.10
76613;DHT22;65507;48.454;-2.058;2023-12-22T07:06:21;11.60;91.20
76613;DHT22;65507;48.454;-2.058;2023-12-22T07:11:35;11.60;91.20
76613;DHT22;65507;48.454;-2.058;2023-12-22T07:14:00;11.60;91.20
76613;DHT22;65507;48.454;-2.058;2023-12-22T07:16:26;11.50;91.20
76613;DHT22;65507;48.454;-2.058;2023-12-22T07:18:51;11.50;91.30
76613;DHT22;65507;48.454;-2.058;2023-12-22T07:21:17;11.50;91.40
76613;DHT22;65507;48.454;-2.058;2023-12-22T07:23:46;11.40;91.40
76613;DHT22;65507;48.454;-2.058;2023-12-22T07:26:12;11.50;91.40
76613;DHT22;65507;48.454;-2.058;2023-12-22T07:28:38;11.50;91.40
76613;DHT22;65507;48.454;-2.058;2023-12-22T07:31:04;11.50;91.30
76613;DHT22;65507;48.454;-2.058;2023-12-22T07:33:31;11.50;91.30
76613;DHT22;65507;48.454;-2.058;2023-12-22T07:35:56;11.50;91.30
76613;DHT22;65507;48.454;-2.058;2023-12-22T07:38:22;11.50;91.30
76613;DHT22;65507;48.454;-2.058;2023-12-22T07:40:47;11.50;91.30
76613;DHT22;65507;48.454;-2.058;2023-12-22T07:43:13;11.50;91.30
76613;DHT22;65507;48.454;-2.058;2023-12-22T07:45:39;11.50;91.30
76613;DHT22;65507;48.454;-2.058;2023-12-22T07:48:05;11.50;91.30
76613;DHT22;65507;48.454;-2.058;2023-12-22T07:50:34;11.50;91.30
76613;DHT22;65507;48.454;-2.058;2023-12-22T07:52:59;11.40;91.30
76613;DHT22;65507;48.454;-2.058;2023-12-22T07:55:25;11.40;91.30
76613;DHT22;65507;48.454;-2.058;2023-12-22T07:57:51;11.40;91.40
76613;DHT22;65507;48.454;-2.058;2023-12-22T08:00:17;11.40;91.40
76613;DHT22;65507;48.454;-2.058;2023-12-22T08:02:43;11.70;91.50
76613;DHT22;65507;48.454;-2.058;2023-12-22T08:05:09;11.40;91.30
76613;DHT22;65507;48.454;-2.058;2023-12-22T08:07:35;11.40;91.30
76613;DHT22;65507;48.454;-2.058;2023-12-22T08:10:02;11.40;91.30
76613;DHT22;65507;48.454;-2.058;2023-12-22T08:12:28;11.40;91.30
76613;DHT22;65507;48.454;-2.058;2023-12-22T08:14:54;11.40;91.30
76613;DHT22;65507;48.454;-2.058;2023-12-22T08:17:20;11.40;91.20
76613;DHT22;65507;48.454;-2.058;2023-12-22T08:19:45;11.40;91.20
76613;DHT22;65507;48.454;-2.058;2023-12-22T08:22:11;11.50;91.30
76613;DHT22;65507;48.454;-2.058;2023-12-22T08:24:39;11.50;91.30
76613;DHT22;65507;48.454;-2.058;2023-12-22T08:27:05;11.50;91.30
76613;DHT22;65507;48.454;-2.058;2023-12-22T08:29:34;11.50;91.70
76613;DHT22;65507;48.454;-2.058;2023-12-22T08:32:00;11.50;91.20
76613;DHT22;65507;48.454;-2.058;2023-12-22T08:34:29;11.50;91.20
76613;DHT22;65507;48.454;-2.058;2023-12-22T08:36:54;11.50;91.20
76613;DHT22;65507;48.454;-2.058;2023-12-22T08:39:20;11.50;91.20
76613;DHT22;65507;48.454;-2.058;2023-12-22T08:41:47;11.50;91.10
76613;DHT22;65507;48.454;-2.058;2023-12-22T08:44:13;11.60;91.10
76613;DHT22;65507;48.454;-2.058;2023-12-22T08:46:42;11.60;91.00
76613;DHT22;65507;48.454;-2.058;2023-12-22T08:49:08;11.60;90.80
76613;DHT22;65507;48.454;-2.058;2023-12-22T08:51:33;11.70;90.70
76613;DHT22;65507;48.454;-2.058;2023-12-22T08:53:59;11.70;90.60
76613;DHT22;65507;48.454;-2.058;2023-12-22T08:56:25;11.70;90.50
76613;DHT22;65507;48.454;-2.058;2023-12-22T08:58:52;11.80;90.50
76613;DHT22;65507;48.454;-2.058;2023-12-22T09:01:21;11.80;90.40
76613;DHT22;65507;48.454;-2.058;2023-12-22T09:03:47;11.80;90.30
76613;DHT22;65507;48.454;-2.058;2023-12-22T09:06:17;11.80;90.30
76613;DHT22;65507;48.454;-2.058;2023-12-22T09:08:43;11.90;90.30
76613;DHT22;65507;48.454;-2.058;2023-12-22T09:11:13;11.90;90.60
76613;DHT22;65507;48.454;-2.058;2023-12-22T09:13:42;11.90;90.20
76613;DHT22;65507;48.454;-2.058;2023-12-22T09:16:09;11.90;90.10
76613;DHT22;65507;48.454;-2.058;2023-12-22T09:18:35;11.60;89.90
76613;DHT22;65507;48.454;-2.058;2023-12-22T09:21:01;12.00;90.00
76613;DHT22;65507;48.454;-2.058;2023-12-22T09:23:28;12.00;89.90
76613;DHT22;65507;48.454;-2.058;2023-12-22T09:25:54;12.00;89.70
76613;DHT22;65507;48.454;-2.058;2023-12-22T09:28:20;12.00;89.60
76613;DHT22;65507;48.454;-2.058;2023-12-22T09:30:46;12.00;89.50
76613;DHT22;65507;48.454;-2.058;2023-12-22T09:33:13;12.10;89.50
76613;DHT22;65507;48.454;-2.058;2023-12-22T09:35:39;12.10;89.50
76613;DHT22;65507;48.454;-2.058;2023-12-22T09:38:10;12.10;89.30
76613;DHT22;65507;48.454;-2.058;2023-12-22T09:40:37;12.00;89.40
76613;DHT22;65507;48.454;-2.058;2023-12-22T09:43:06;12.00;89.50
76613;DHT22;65507;48.454;-2.058;2023-12-22T09:45:35;12.00;89.40
76613;DHT22;65507;48.454;-2.058;2023-12-22T09:48:03;12.00;89.40
76613;DHT22;65507;48.454;-2.058;2023-12-22T09:50:30;12.00;89.30
76613;DHT22;65507;48.454;-2.058;2023-12-22T09:52:56;12.10;89.20
76613;DHT22;65507;48.454;-2.058;2023-12-22T09:55:22;12.10;89.10
76613;DHT22;65507;48.454;-2.058;2023-12-22T09:57:49;12.10;88.90
76613;DHT22;65507;48.454;-2.058;2023-12-22T10:00:16;12.10;88.60
76613;DHT22;65507;48.454;-2.058;2023-12-22T10:02:42;12.10;88.30
76613;DHT22;65507;48.454;-2.058;2023-12-22T10:05:11;12.20;88.10
76613;DHT22;65507;48.454;-2.058;2023-12-22T10:07:39;12.10;88.00
76613;DHT22;65507;48.454;-2.058;2023-12-22T10:10:05;12.20;87.90
76613;DHT22;65507;48.454;-2.058;2023-12-22T10:12:34;12.20;87.60
76613;DHT22;65507;48.454;-2.058;2023-12-22T10:15:00;12.20;87.50
76613;DHT22;65507;48.454;-2.058;2023-12-22T10:17:27;12.30;87.50
76613;DHT22;65507;48.454;-2.058;2023-12-22T10:19:54;12.20;87.40
76613;DHT22;65507;48.454;-2.058;2023-12-22T10:22:20;12.30;87.40
76613;DHT22;65507;48.454;-2.058;2023-12-22T10:24:48;12.20;87.40
76613;DHT22;65507;48.454;-2.058;2023-12-22T10:27:16;12.20;87.50
76613;DHT22;65507;48.454;-2.058;2023-12-22T10:29:48;12.10;87.60
76613;DHT22;65507;48.454;-2.058;2023-12-22T10:32:15;12.10;87.50
76613;DHT22;65507;48.454;-2.058;2023-12-22T10:34:41;12.10;87.70
76613;DHT22;65507;48.454;-2.058;2023-12-22T10:37:07;12.10;87.80
76613;DHT22;65507;48.454;-2.058;2023-12-22T10:39:36;12.10;87.80
76613;DHT22;65507;48.454;-2.058;2023-12-22T10:42:02;12.10;87.70
76613;DHT22;65507;48.454;-2.058;2023-12-22T10:44:29;12.00;87.70
76613;DHT22;65507;48.454;-2.058;2023-12-22T10:46:55;12.10;87.80
76613;DHT22;65507;48.454;-2.058;2023-12-22T10:49:22;12.10;87.70
76613;DHT22;65507;48.454;-2.058;2023-12-22T10:51:49;12.10;87.60
76613;DHT22;65507;48.454;-2.058;2023-12-22T10:54:14;12.10;87.60
76613;DHT22;65507;48.454;-2.058;2023-12-22T10:56:41;12.10;87.60
76613;DHT22;65507;48.454;-2.058;2023-12-22T10:59:08;12.00;87.80
76613;DHT22;65507;48.454;-2.058;2023-12-22T11:01:36;11.90;87.80
76613;DHT22;65507;48.454;-2.058;2023-12-22T11:04:09;11.90;88.00
76613;DHT22;65507;48.454;-2.058;2023-12-22T11:06:41;11.90;88.10
76613;DHT22;65507;48.454;-2.058;2023-12-22T11:09:09;11.90;88.30
76613;DHT22;65507;48.454;-2.058;2023-12-22T11:11:37;11.80;88.30
76613;DHT22;65507;48.454;-2.058;2023-12-22T11:14:04;11.80;88.40
76613;DHT22;65507;48.454;-2.058;2023-12-22T11:16:31;11.80;88.40
76613;DHT22;65507;48.454;-2.058;2023-12-22T11:18:57;11.90;88.40
76613;DHT22;65507;48.454;-2.058;2023-12-22T11:21:24;11.90;88.30
76613;DHT22;65507;48.454;-2.058;2023-12-22T11:23:51;11.90;88.10
76613;DHT22;65507;48.454;-2.058;2023-12-22T11:26:18;12.00;88.00
76613;DHT22;65507;48.454;-2.058;2023-12-22T11:28:51;12.00;87.70
76613;DHT22;65507;48.454;-2.058;2023-12-22T11:31:18;12.00;87.50
76613;DHT22;65507;48.454;-2.058;2023-12-22T11:33:45;12.00;87.50
76613;DHT22;65507;48.454;-2.058;2023-12-22T11:36:12;12.00;87.40
76613;DHT22;65507;48.454;-2.058;2023-12-22T11:38:42;11.90;87.30
76613;DHT22;65507;48.454;-2.058;2023-12-22T11:41:10;11.90;87.50
76613;DHT22;65507;48.454;-2.058;2023-12-22T11:43:38;11.70;87.90
76613;DHT22;65507;48.454;-2.058;2023-12-22T11:46:05;11.50;88.70
76613;DHT22;65507;48.454;-2.058;2023-12-22T11:48:31;11.40;89.10
76613;DHT22;65507;48.454;-2.058;2023-12-22T11:50:57;11.40;89.20
76613;DHT22;65507;48.454;-2.058;2023-12-22T11:53:24;11.40;89.20
76613;DHT22;65507;48.454;-2.058;2023-12-22T11:58:46;11.60;88.70
76613;DHT22;65507;48.454;-2.058;2023-12-22T12:01:22;11.60;88.30
76613;DHT22;65507;48.454;-2.058;2023-12-22T12:03:53;11.70;88.20
76613;DHT22;65507;48.454;-2.058;2023-12-22T12:09:14;11.50;87.70
76613;DHT22;65507;48.454;-2.058;2023-12-22T12:14:22;11.60;88.10
76613;DHT22;65507;48.454;-2.058;2023-12-22T12:16:48;11.50;88.40
76613;DHT22;65507;48.454;-2.058;2023-12-22T12:19:14;11.40;88.70
76613;DHT22;65507;48.454;-2.058;2023-12-22T12:21:40;11.50;88.70
76613;DHT22;65507;48.454;-2.058;2023-12-22T12:24:06;11.50;88.60
76613;DHT22;65507;48.454;-2.058;2023-12-22T12:26:35;11.60;88.40
76613;DHT22;65507;48.454;-2.058;2023-12-22T12:29:01;11.70;88.20
76613;DHT22;65507;48.454;-2.058;2023-12-22T12:31:37;11.70;88.10
76613;DHT22;65507;48.454;-2.058;2023-12-22T12:34:04;11.80;88.00
76613;DHT22;65507;48.454;-2.058;2023-12-22T12:36:31;11.80;87.80
76613;DHT22;65507;48.454;-2.058;2023-12-22T12:39:14;11.80;87.80
76613;DHT22;65507;48.454;-2.058;2023-12-22T12:41:42;11.80;87.80
76613;DHT22;65507;48.454;-2.058;2023-12-22T12:44:11;11.80;87.80
76613;DHT22;65507;48.454;-2.058;2023-12-22T12:46:39;11.90;87.80
76613;DHT22;65507;48.454;-2.058;2023-12-22T12:49:09;11.80;87.70
76613;DHT22;65507;48.454;-2.058;2023-12-22T12:51:47;11.80;87.80
76613;DHT22;65507;48.454;-2.058;2023-12-22T12:54:13;11.80;87.90
76613;DHT22;65507;48.454;-2.058;2023-12-22T12:56:43;11.80;88.10
76613;DHT22;65507;48.454;-2.058;2023-12-22T12:59:14;11.80;88.20
76613;DHT22;65507;48.454;-2.058;2023-12-22T13:01:41;11.70;88.20
76613;DHT22;65507;48.454;-2.058;2023-12-22T13:04:06;11.70;88.40
76613;DHT22;65507;48.454;-2.058;2023-12-22T13:06:33;11.70;88.60
76613;DHT22;65507;48.454;-2.058;2023-12-22T13:08:59;11.60;89.60
76613;DHT22;65507;48.454;-2.058;2023-12-22T13:11:28;11.60;88.70
76613;DHT22;65507;48.454;-2.058;2023-12-22T13:13:56;11.70;88.80
76613;DHT22;65507;48.454;-2.058;2023-12-22T13:16:24;11.70;88.60
76613;DHT22;65507;48.454;-2.058;2023-12-22T13:18:58;11.80;88.60
76613;DHT22;65507;48.454;-2.058;2023-12-22T13:21:24;11.80;88.50
76613;DHT22;65507;48.454;-2.058;2023-12-22T13:24:09;11.90;88.50
76613;DHT22;65507;48.454;-2.058;2023-12-22T13:26:36;12.00;88.20
76613;DHT22;65507;48.454;-2.058;2023-12-22T13:29:02;12.00;88.10
76613;DHT22;65507;48.454;-2.058;2023-12-22T13:31:32;12.00;87.90
76613;DHT22;65507;48.454;-2.058;2023-12-22T13:34:02;12.00;87.70
76613;DHT22;65507;48.454;-2.058;2023-12-22T13:36:33;12.10;87.60
76613;DHT22;65507;48.454;-2.058;2023-12-22T13:38:59;12.20;87.30
76613;DHT22;65507;48.454;-2.058;2023-12-22T13:41:25;12.20;86.90
76613;DHT22;65507;48.454;-2.058;2023-12-22T13:43:50;12.20;86.80
76613;DHT22;65507;48.454;-2.058;2023-12-22T13:46:16;12.20;86.40
76613;DHT22;65507;48.454;-2.058;2023-12-22T13:48:43;12.20;86.30
76613;DHT22;65507;48.454;-2.058;2023-12-22T13:51:09;12.20;86.40
76613;DHT22;65507;48.454;-2.058;2023-12-22T13:53:46;12.20;86.20
76613;DHT22;65507;48.454;-2.058;2023-12-22T13:56:11;12.10;86.20
76613;DHT22;65507;48.454;-2.058;2023-12-22T13:58:47;12.10;86.40
76613;DHT22;65507;48.454;-2.058;2023-12-22T14:01:16;12.10;86.50
76613;DHT22;65507;48.454;-2.058;2023-12-22T14:03:44;12.10;86.60
76613;DHT22;65507;48.454;-2.058;2023-12-22T14:06:11;12.00;86.80
76613;DHT22;65507;48.454;-2.058;2023-12-22T14:08:39;12.00;87.00
76613;DHT22;65507;48.454;-2.058;2023-12-22T14:11:07;11.90;87.10
76613;DHT22;65507;48.454;-2.058;2023-12-22T14:13:32;11.90;87.20
76613;DHT22;65507;48.454;-2.058;2023-12-22T14:15:59;11.90;87.50
76613;DHT22;65507;48.454;-2.058;2023-12-22T14:18:25;11.80;87.50
76613;DHT22;65507;48.454;-2.058;2023-12-22T14:20:50;11.80;87.70
76613;DHT22;65507;48.454;-2.058;2023-12-22T14:23:16;11.80;87.70
76613;DHT22;65507;48.454;-2.058;2023-12-22T14:25:42;12.10;88.10
76613;DHT22;65507;48.454;-2.058;2023-12-22T14:28:08;11.70;88.00
76613;DHT22;65507;48.454;-2.058;2023-12-22T14:30:34;11.70;88.20
76613;DHT22;65507;48.454;-2.058;2023-12-22T14:33:00;11.70;88.20
76613;DHT22;65507;48.454;-2.058;2023-12-22T14:35:26;11.70;88.20
76613;DHT22;65507;48.454;-2.058;2023-12-22T14:37:51;11.70;88.20
76613;DHT22;65507;48.454;-2.058;2023-12-22T14:40:17;11.70;88.30
76613;DHT22;65507;48.454;-2.058;2023-12-22T14:42:42;11.70;88.30
76613;DHT22;65507;48.454;-2.058;2023-12-22T14:45:08;11.80;88.30
76613;DHT22;65507;48.454;-2.058;2023-12-22T14:47:34;11.80;88.10
76613;DHT22;65507;48.454;-2.058;2023-12-22T14:50:01;11.80;88.00
76613;DHT22;65507;48.454;-2.058;2023-12-22T14:52:30;11.80;87.80
76613;DHT22;65507;48.454;-2.058;2023-12-22T14:54:59;11.90;87.80
76613;DHT22;65507;48.454;-2.058;2023-12-22T14:57:26;11.90;87.60
76613;DHT22;65507;48.454;-2.058;2023-12-22T14:59:54;12.00;87.50
76613;DHT22;65507;48.454;-2.058;2023-12-22T15:02:20;11.90;87.40
76613;DHT22;65507;48.454;-2.058;2023-12-22T15:04:46;12.00;87.40
76613;DHT22;65507;48.454;-2.058;2023-12-22T15:07:17;12.00;87.30
76613;DHT22;65507;48.454;-2.058;2023-12-22T15:09:43;12.00;87.30
76613;DHT22;65507;48.454;-2.058;2023-12-22T15:12:11;12.00;87.20
76613;DHT22;65507;48.454;-2.058;2023-12-22T15:14:37;12.00;87.20
76613;DHT22;65507;48.454;-2.058;2023-12-22T15:17:02;11.90;87.00
76613;DHT22;65507;48.454;-2.058;2023-12-22T15:19:28;11.90;87.00
76613;DHT22;65507;48.454;-2.058;2023-12-22T15:21:54;11.90;87.10
76613;DHT22;65507;48.454;-2.058;2023-12-22T15:24:20;11.90;87.20
76613;DHT22;65507;48.454;-2.058;2023-12-22T15:26:46;11.80;87.30
76613;DHT22;65507;48.454;-2.058;2023-12-22T15:29:12;11.80;87.40